< < Back
Terminal Aerodrome Forecast


Current Version              Previous Versions:   1  2  3  4  5  6  7  8  9  

Terminal Aerodrome Forecast

047
FTUS42 KCHS 230500
TAFSAV
TAF
KSAV 230521Z 2306/2406 36004KT P6SM SKC
     FM231800 32007KT P6SM SKC
     FM240000 VRB03KT P6SM SKC=

Latest METAR

997
SAUS80 KWBC 230800 CCA
MTRSAV
METAR KSAV 230753Z AUTO 01003KT 10SM CLR 10/07 A3006 RMK AO2 SLP179
T01000067


USA.gov is the U.S. government's official web portal to all federal, state and local government web resources and services.